Vega Desgagnes — VOCQ — position and weather

sailwx.info

Track history (hours):
 
Tides and Currents Weather Stations Pressure Air Temp Water Temp Dewpoint Dewpoint Depression Visibility Wind Speed Wind Dir Waves Ship Positions

Vega Desgagnes

Last reported at 2014-Jul-21 05:10 UTC. Time now 2014-Jul-24 06:29 UTC.
Position N 42°19' W 080°43'.

Length 141 m; draft 7.3 m.

Type: Ship (hazmat cat B). MMSI: 316003770.

Date/timePositionNaut miles runAvg speedWind from/ knotsBaromVisibWave heightAir tempDewpointWater temp
2014-Jul-21 05:10N 42°19' W 080°43'2514.4
2014-Jul-21 03:27N 42°28' W 080°12'1314.6
2014-Jul-21 02:33N 42°33' W 079°56'1514.6
2014-Jul-21 01:33N 42°41' W 079°39'146 2.9
2014-Jul-18 23:28N 43°54' W 076°45'1112.4
2014-Jul-18 22:33N 43°60' W 076°31'1111.2
2014-Jul-18 21:33N 44°08' W 076°21'10 9.5
2014-Jul-18 20:33N 44°13' W 076°10'86 7.5
2014-Jul-18 09:04N 45°04' W 074°32'4 8.6
2014-Jul-18 08:33N 45°07' W 074°28'1211.4
2014-Jul-18 07:32N 45°14' W 074°14'9 8.6
2014-Jul-18 06:27N 45°14' W 074°01'6 6.4
2014-Jul-18 05:33N 45°18' W 073°56'1 0.8
2014-Jul-18 04:33N 45°19' W 073°55'5 5.0
2014-Jul-18 03:33N 45°22' W 073°50'8 8.5
2014-Jul-18 02:34N 45°24' W 073°38'3 3.3
2014-Jul-18 01:33N 45°24' W 073°33'5 4.8
2014-Jul-18 00:33N 45°29' W 073°31'1 1.1
2014-Jul-17 23:33N 45°30' W 073°31'3 2.6
2014-Jul-17 22:33N 45°33' W 073°32'5 5.4
2014-Jul-17 21:33N 45°38' W 073°30'0 0.0
2014-Jul-17 20:33N 45°38' W 073°29'0 0.0
2014-Jul-17 19:33N 45°38' W 073°30'0 0.0
2014-Jul-17 18:33N 45°38' W 073°30'0 0.0
2014-Jul-17 17:34N 45°38' W 073°30'0 0.0
2014-Jul-17 16:33N 45°38' W 073°29'0 0.0
2014-Jul-17 15:33N 45°38' W 073°30'0 0.0
2014-Jul-17 14:33N 45°38' W 073°30'0 0.0
2014-Jul-17 13:33N 45°38' W 073°29'0 0.0
2014-Jul-17 12:34N 45°38' W 073°29'0 0.0
2014-Jul-17 11:33N 45°38' W 073°30'0 0.0
2014-Jul-17 10:33N 45°38' W 073°30'0 0.0
2014-Jul-17 09:33N 45°38' W 073°29'0 0.0
2014-Jul-17 08:33N 45°38' W 073°30'0 0.0
2014-Jul-17 07:33N 45°38' W 073°30'0 0.0
2014-Jul-17 06:33N 45°38' W 073°29'0 0.0
2014-Jul-17 05:33N 45°38' W 073°29'0 0.0
2014-Jul-17 04:33N 45°38' W 073°30'0 0.0
2014-Jul-17 03:33N 45°38' W 073°30'0 0.0
2014-Jul-17 02:33N 45°38' W 073°30'0 0.1
2014-Jul-17 01:33N 45°38' W 073°29'1 0.6
2014-Jul-17 00:32N 45°38' W 073°29'0 0.0
2014-Jul-16 23:32N 45°38' W 073°29'0 0.0
2014-Jul-16 22:32N 45°38' W 073°29'0 0.0
2014-Jul-16 21:32N 45°38' W 073°29'0 0.0
2014-Jul-16 20:32N 45°38' W 073°29'0 0.0
2014-Jul-16 19:32N 45°38' W 073°29'0 0.0
2014-Jul-16 18:32N 45°38' W 073°29'0 0.0
2014-Jul-16 17:32N 45°38' W 073°29'0 0.0
2014-Jul-16 16:32N 45°38' W 073°29'0 0.0
2014-Jul-16 15:32N 45°38' W 073°29'0 0.0
2014-Jul-16 14:32N 45°38' W 073°29'0 0.0
2014-Jul-16 13:32N 45°38' W 073°29'0 0.0
2014-Jul-16 12:32N 45°38' W 073°29'0 0.0
2014-Jul-16 11:32N 45°38' W 073°29'0 0.0
2014-Jul-16 10:32N 45°38' W 073°29'0 0.0
2014-Jul-16 09:32N 45°38' W 073°29'0 0.0
2014-Jul-16 08:32N 45°38' W 073°29'0 0.0
2014-Jul-16 07:32N 45°38' W 073°29'0 0.0
2014-Jul-16 06:32N 45°38' W 073°29'0 0.0
2014-Jul-16 05:32N 45°38' W 073°29'0 0.0
2014-Jul-16 04:32N 45°38' W 073°29'0 0.0
2014-Jul-16 03:32N 45°38' W 073°29'0 0.0
2014-Jul-16 02:32N 45°38' W 073°29'0 0.0
2014-Jul-16 01:32N 45°38' W 073°29'0 0.0
2014-Jul-16 00:32N 45°38' W 073°29'0 0.0
2014-Jul-15 23:32N 45°38' W 073°29'0 0.0
2014-Jul-15 22:32N 45°38' W 073°29'0 0.0
2014-Jul-15 21:32N 45°38' W 073°29'0 0.0
2014-Jul-15 20:32N 45°38' W 073°29'0 0.0
2014-Jul-15 19:32N 45°38' W 073°29'0 0.0
2014-Jul-15 18:32N 45°38' W 073°29'0 0.0
2014-Jul-15 17:32N 45°38' W 073°29'0 0.0
2014-Jul-15 16:32N 45°38' W 073°29'0 0.0
2014-Jul-15 15:32N 45°38' W 073°29'0 0.0
2014-Jul-15 14:32N 45°38' W 073°29'0 0.0
2014-Jul-15 13:32N 45°38' W 073°29'0 0.0
2014-Jul-15 12:32N 45°38' W 073°29'0 0.0
2014-Jul-15 11:32N 45°38' W 073°29'0 0.0
2014-Jul-15 10:32N 45°38' W 073°29'0 0.0
2014-Jul-15 09:32N 45°38' W 073°29'0 0.0
2014-Jul-15 08:32N 45°38' W 073°29'0 0.0
2014-Jul-15 07:32N 45°38' W 073°29'0 0.0
2014-Jul-15 06:32N 45°38' W 073°29'0 0.0
2014-Jul-15 05:32N 45°38' W 073°29'0 0.0
2014-Jul-15 04:32N 45°38' W 073°29'0 0.0
2014-Jul-15 03:32N 45°38' W 073°29'1 0.7
2014-Jul-15 02:31N 45°38' W 073°30'0 0.0
2014-Jul-15 01:32N 45°38' W 073°30'0 0.0
2014-Jul-15 00:32N 45°38' W 073°30'0 0.0
2014-Jul-14 23:32N 45°38' W 073°29'0 0.0
2014-Jul-14 22:32N 45°38' W 073°29'0 0.0
2014-Jul-14 21:32N 45°38' W 073°30'0 0.0
2014-Jul-14 20:32N 45°38' W 073°29'0 0.0
2014-Jul-14 19:34N 45°38' W 073°29'0 0.0
2014-Jul-14 18:34N 45°38' W 073°30'0 0.0
2014-Jul-14 17:34N 45°38' W 073°29'0 0.0
2014-Jul-14 16:34N 45°38' W 073°30'0 0.0
2014-Jul-14 15:34N 45°38' W 073°29'0 0.0
2014-Jul-14 14:34N 45°38' W 073°30'0 0.0
2014-Jul-14 13:33N 45°38' W 073°29'0 0.0
2014-Jul-14 12:33N 45°38' W 073°30'0 0.0
2014-Jul-14 11:34N 45°38' W 073°30'0 0.0
2014-Jul-14 10:34N 45°38' W 073°29'0 0.0
2014-Jul-14 09:33N 45°38' W 073°30'0 0.0
2014-Jul-14 08:34N 45°38' W 073°29'1 0.5
2014-Jul-14 07:31N 45°38' W 073°29'0 0.0
2014-Jul-14 06:33N 45°38' W 073°29'0 0.0
2014-Jul-14 05:33N 45°38' W 073°29'0 0.0
2014-Jul-14 04:33N 45°38' W 073°29'0 0.0
2014-Jul-14 03:33N 45°38' W 073°29'0 0.0
2014-Jul-14 02:33N 45°38' W 073°29'0 0.0
2014-Jul-14 01:33N 45°38' W 073°29'0 0.0
2014-Jul-14 00:33N 45°38' W 073°29'0 0.0
2014-Jul-13 23:33N 45°38' W 073°29'0 0.0
2014-Jul-13 22:33N 45°38' W 073°29'0 0.0
2014-Jul-13 21:33N 45°38' W 073°29'0 0.0
2014-Jul-13 20:33N 45°38' W 073°29'0 0.1
2014-Jul-13 19:33N 45°38' W 073°29'4 4.3
2014-Jul-13 18:33N 45°34' W 073°31'4 4.4
2014-Jul-13 17:33N 45°30' W 073°31'5 4.9
2014-Jul-13 16:33N 45°25' W 073°31'4 3.5
2014-Jul-13 15:33N 45°24' W 073°36'8 8.3
2014-Jul-13 14:34N 45°24' W 073°48'7 7.2
2014-Jul-13 13:33N 45°19' W 073°55'3 2.5
2014-Jul-13 12:16N 45°16' W 073°57'7 9.4
2014-Jul-13 11:33N 45°13' W 074°06'1511.4
2014-Jul-13 10:16N 45°08' W 074°26'810.9
2014-Jul-13 09:33N 45°03' W 074°34'79 7.8
2014-Jul-12 23:26N 44°16' W 076°03'1112.1
2014-Jul-12 22:33N 44°12' W 076°17'1413.5
2014-Jul-12 21:29N 43°60' W 076°28'  
Track history (hours):
 
Tides and Currents Weather Stations Pressure Air Temp Water Temp Dewpoint Dewpoint Depression Visibility Wind Speed Wind Dir Waves Ship Positions

Vega Desgagnes

Last reported at 2014-Jul-21 05:10 UTC. Time now 2014-Jul-24 06:29 UTC.
Position N 42°19' W 080°43'.

Length 141 m; draft 7.3 m.

Type: Ship (hazmat cat B). MMSI: 316003770.

Date/timePositionNaut miles runAvg speedWind from/ knotsBaromVisibWave heightAir tempDewpointWater temp
2014-Jul-21 05:10N 42°19' W 080°43'2514.4
2014-Jul-21 03:27N 42°28' W 080°12'1314.6
2014-Jul-21 02:33N 42°33' W 079°56'1514.6
2014-Jul-21 01:33N 42°41' W 079°39'146 2.9
2014-Jul-18 23:28N 43°54' W 076°45'1112.4
2014-Jul-18 22:33N 43°60' W 076°31'1111.2
2014-Jul-18 21:33N 44°08' W 076°21'10 9.5
2014-Jul-18 20:33N 44°13' W 076°10'86 7.5
2014-Jul-18 09:04N 45°04' W 074°32'4 8.6
2014-Jul-18 08:33N 45°07' W 074°28'1211.4
2014-Jul-18 07:32N 45°14' W 074°14'9 8.6
2014-Jul-18 06:27N 45°14' W 074°01'6 6.4
2014-Jul-18 05:33N 45°18' W 073°56'1 0.8
2014-Jul-18 04:33N 45°19' W 073°55'5 5.0
2014-Jul-18 03:33N 45°22' W 073°50'8 8.5
2014-Jul-18 02:34N 45°24' W 073°38'3 3.3
2014-Jul-18 01:33N 45°24' W 073°33'5 4.8
2014-Jul-18 00:33N 45°29' W 073°31'1 1.1
2014-Jul-17 23:33N 45°30' W 073°31'3 2.6
2014-Jul-17 22:33N 45°33' W 073°32'5 5.4
2014-Jul-17 21:33N 45°38' W 073°30'0 0.0
2014-Jul-17 20:33N 45°38' W 073°29'0 0.0
2014-Jul-17 19:33N 45°38' W 073°30'0 0.0
2014-Jul-17 18:33N 45°38' W 073°30'0 0.0
2014-Jul-17 17:34N 45°38' W 073°30'0 0.0
2014-Jul-17 16:33N 45°38' W 073°29'0 0.0
2014-Jul-17 15:33N 45°38' W 073°30'0 0.0
2014-Jul-17 14:33N 45°38' W 073°30'0 0.0
2014-Jul-17 13:33N 45°38' W 073°29'0 0.0
2014-Jul-17 12:34N 45°38' W 073°29'0 0.0
2014-Jul-17 11:33N 45°38' W 073°30'0 0.0
2014-Jul-17 10:33N 45°38' W 073°30'0 0.0
2014-Jul-17 09:33N 45°38' W 073°29'0 0.0
2014-Jul-17 08:33N 45°38' W 073°30'0 0.0
2014-Jul-17 07:33N 45°38' W 073°30'0 0.0
2014-Jul-17 06:33N 45°38' W 073°29'0 0.0
2014-Jul-17 05:33N 45°38' W 073°29'0 0.0
2014-Jul-17 04:33N 45°38' W 073°30'0 0.0
2014-Jul-17 03:33N 45°38' W 073°30'0 0.0
2014-Jul-17 02:33N 45°38' W 073°30'0 0.1
2014-Jul-17 01:33N 45°38' W 073°29'1 0.6
2014-Jul-17 00:32N 45°38' W 073°29'0 0.0
2014-Jul-16 23:32N 45°38' W 073°29'0 0.0
2014-Jul-16 22:32N 45°38' W 073°29'0 0.0
2014-Jul-16 21:32N 45°38' W 073°29'0 0.0
2014-Jul-16 20:32N 45°38' W 073°29'0 0.0
2014-Jul-16 19:32N 45°38' W 073°29'0 0.0
2014-Jul-16 18:32N 45°38' W 073°29'0 0.0
2014-Jul-16 17:32N 45°38' W 073°29'0 0.0
2014-Jul-16 16:32N 45°38' W 073°29'0 0.0
2014-Jul-16 15:32N 45°38' W 073°29'0 0.0
2014-Jul-16 14:32N 45°38' W 073°29'0 0.0
2014-Jul-16 13:32N 45°38' W 073°29'0 0.0
2014-Jul-16 12:32N 45°38' W 073°29'0 0.0
2014-Jul-16 11:32N 45°38' W 073°29'0 0.0
2014-Jul-16 10:32N 45°38' W 073°29'0 0.0
2014-Jul-16 09:32N 45°38' W 073°29'0 0.0
2014-Jul-16 08:32N 45°38' W 073°29'0 0.0
2014-Jul-16 07:32N 45°38' W 073°29'0 0.0
2014-Jul-16 06:32N 45°38' W 073°29'0 0.0
2014-Jul-16 05:32N 45°38' W 073°29'0 0.0
2014-Jul-16 04:32N 45°38' W 073°29'0 0.0
2014-Jul-16 03:32N 45°38' W 073°29'0 0.0
2014-Jul-16 02:32N 45°38' W 073°29'0 0.0
2014-Jul-16 01:32N 45°38' W 073°29'0 0.0
2014-Jul-16 00:32N 45°38' W 073°29'0 0.0
2014-Jul-15 23:32N 45°38' W 073°29'0 0.0
2014-Jul-15 22:32N 45°38' W 073°29'0 0.0
2014-Jul-15 21:32N 45°38' W 073°29'0 0.0
2014-Jul-15 20:32N 45°38' W 073°29'0 0.0
2014-Jul-15 19:32N 45°38' W 073°29'0 0.0
2014-Jul-15 18:32N 45°38' W 073°29'0 0.0
2014-Jul-15 17:32N 45°38' W 073°29'0 0.0
2014-Jul-15 16:32N 45°38' W 073°29'0 0.0
2014-Jul-15 15:32N 45°38' W 073°29'0 0.0
2014-Jul-15 14:32N 45°38' W 073°29'0 0.0
2014-Jul-15 13:32N 45°38' W 073°29'0 0.0
2014-Jul-15 12:32N 45°38' W 073°29'0 0.0
2014-Jul-15 11:32N 45°38' W 073°29'0 0.0
2014-Jul-15 10:32N 45°38' W 073°29'0 0.0
2014-Jul-15 09:32N 45°38' W 073°29'0 0.0
2014-Jul-15 08:32N 45°38' W 073°29'0 0.0
2014-Jul-15 07:32N 45°38' W 073°29'0 0.0
2014-Jul-15 06:32N 45°38' W 073°29'0 0.0
2014-Jul-15 05:32N 45°38' W 073°29'0 0.0
2014-Jul-15 04:32N 45°38' W 073°29'0 0.0
2014-Jul-15 03:32N 45°38' W 073°29'1 0.7
2014-Jul-15 02:31N 45°38' W 073°30'0 0.0
2014-Jul-15 01:32N 45°38' W 073°30'0 0.0
2014-Jul-15 00:32N 45°38' W 073°30'0 0.0
2014-Jul-14 23:32N 45°38' W 073°29'0 0.0
2014-Jul-14 22:32N 45°38' W 073°29'0 0.0
2014-Jul-14 21:32N 45°38' W 073°30'0 0.0
2014-Jul-14 20:32N 45°38' W 073°29'0 0.0
2014-Jul-14 19:34N 45°38' W 073°29'0 0.0
2014-Jul-14 18:34N 45°38' W 073°30'0 0.0
2014-Jul-14 17:34N 45°38' W 073°29'0 0.0
2014-Jul-14 16:34N 45°38' W 073°30'0 0.0
2014-Jul-14 15:34N 45°38' W 073°29'0 0.0
2014-Jul-14 14:34N 45°38' W 073°30'0 0.0
2014-Jul-14 13:33N 45°38' W 073°29'0 0.0
2014-Jul-14 12:33N 45°38' W 073°30'0 0.0
2014-Jul-14 11:34N 45°38' W 073°30'0 0.0
2014-Jul-14 10:34N 45°38' W 073°29'0 0.0
2014-Jul-14 09:33N 45°38' W 073°30'0 0.0
2014-Jul-14 08:34N 45°38' W 073°29'1 0.5
2014-Jul-14 07:31N 45°38' W 073°29'0 0.0
2014-Jul-14 06:33N 45°38' W 073°29'0 0.0
2014-Jul-14 05:33N 45°38' W 073°29'0 0.0
2014-Jul-14 04:33N 45°38' W 073°29'0 0.0
2014-Jul-14 03:33N 45°38' W 073°29'0 0.0
2014-Jul-14 02:33N 45°38' W 073°29'0 0.0
2014-Jul-14 01:33N 45°38' W 073°29'0 0.0
2014-Jul-14 00:33N 45°38' W 073°29'0 0.0
2014-Jul-13 23:33N 45°38' W 073°29'0 0.0
2014-Jul-13 22:33N 45°38' W 073°29'0 0.0
2014-Jul-13 21:33N 45°38' W 073°29'0 0.0
2014-Jul-13 20:33N 45°38' W 073°29'0 0.1
2014-Jul-13 19:33N 45°38' W 073°29'4 4.3
2014-Jul-13 18:33N 45°34' W 073°31'4 4.4
2014-Jul-13 17:33N 45°30' W 073°31'5 4.9
2014-Jul-13 16:33N 45°25' W 073°31'4 3.5
2014-Jul-13 15:33N 45°24' W 073°36'8 8.3
2014-Jul-13 14:34N 45°24' W 073°48'7 7.2
2014-Jul-13 13:33N 45°19' W 073°55'3 2.5
2014-Jul-13 12:16N 45°16' W 073°57'7 9.4
2014-Jul-13 11:33N 45°13' W 074°06'1511.4
2014-Jul-13 10:16N 45°08' W 074°26'810.9
2014-Jul-13 09:33N 45°03' W 074°34'79 7.8
2014-Jul-12 23:26N 44°16' W 076°03'1112.1
2014-Jul-12 22:33N 44°12' W 076°17'1413.5
2014-Jul-12 21:29N 43°60' W 076°28'  

Dump ship's entire track history